Time;durP1;ratioP1;P1;durP2;ratioP2;P2;SDS_P1;SDS_P2;PMS_P1;PMS_P2;Temp;Humidity;BMP_temperature;BMP_pressure;BME280_temperature;BME280_humidity;BME280_pressure;Samples;Min_cycle;Max_cycle;Signal;HPM_P1;HPM_P2
2023/09/09 00:00:50;;;;;;;0.10;0.10;;;22.50;99.90;;;;;;5009785;28;20545;-79
2023/09/09 00:03:16;;;;;;;0.85;0.55;;;22.30;99.90;;;;;;5009437;28;20036;-80
2023/09/09 00:05:41;;;;;;;8.25;2.30;;;22.30;99.90;;;;;;5009691;28;20440;-80
2023/09/09 00:08:07;;;;;;;0.90;0.85;;;22.30;99.90;;;;;;5009787;28;20022;-80
2023/09/09 00:10:38;;;;;;;0.45;0.28;;;22.00;99.90;;;;;;5008381;28;20041;-80
2023/09/09 00:13:04;;;;;;;10.15;2.08;;;21.90;99.90;;;;;;5009393;28;20037;-81
2023/09/09 00:15:31;;;;;;;0.00;0.00;;;21.80;99.90;;;;;;5008721;28;20409;-81
2023/09/09 00:18:00;;;;;;;0.93;0.90;;;21.90;99.90;;;;;;5009207;28;20026;-81
2023/09/09 00:20:30;;;;;;;7.90;3.30;;;21.90;99.90;;;;;;5009686;28;20034;-80
2023/09/09 00:22:57;;;;;;;0.00;0.00;;;21.70;99.90;;;;;;5009286;28;20029;-81
2023/09/09 00:25:22;;;;;;;0.00;0.00;;;22.00;99.90;;;;;;5008431;28;20115;-80
2023/09/09 00:27:48;;;;;;;0.05;0.05;;;22.30;99.90;;;;;;5009414;28;20062;-80
2023/09/09 00:30:14;;;;;;;0.05;0.05;;;22.50;99.90;;;;;;5007961;28;20046;-80
2023/09/09 00:32:40;;;;;;;6.82;6.13;;;22.70;99.90;;;;;;4991557;28;20026;-80
2023/09/09 00:35:06;;;;;;;1.35;1.25;;;22.70;99.90;;;;;;5009399;28;20374;-81
2023/09/09 00:37:32;;;;;;;0.68;0.68;;;22.20;99.90;;;;;;5009439;28;20490;-80
2023/09/09 00:39:58;;;;;;;0.90;0.90;;;22.10;99.90;;;;;;5008091;28;20379;-80
2023/09/09 00:42:25;;;;;;;0.35;0.35;;;21.60;99.90;;;;;;5007943;28;20026;-80
2023/09/09 00:44:51;;;;;;;3.25;2.08;;;21.20;99.90;;;;;;5010604;28;20508;-80
2023/09/09 00:47:17;;;;;;;5.50;1.70;;;21.10;99.90;;;;;;5010946;28;20152;-80
2023/09/09 00:49:43;;;;;;;0.30;0.30;;;21.00;99.90;;;;;;5012741;28;20462;-80
2023/09/09 00:52:09;;;;;;;1.45;1.35;;;21.10;99.90;;;;;;5012425;28;20030;-80
2023/09/09 00:54:35;;;;;;;0.05;0.05;;;21.20;99.90;;;;;;5012612;28;20108;-80
2023/09/09 00:57:04;;;;;;;0.08;0.08;;;21.10;99.90;;;;;;5012636;28;20037;-80
2023/09/09 00:59:30;;;;;;;4.53;1.88;;;21.30;99.90;;;;;;5012269;28;20022;-81
2023/09/09 01:01:59;;;;;;;0.00;0.00;;;21.60;99.90;;;;;;5010836;28;20456;-81
2023/09/09 01:04:25;;;;;;;0.00;0.00;;;21.50;99.90;;;;;;5012268;28;20029;-81
2023/09/09 01:06:53;;;;;;;0.05;0.05;;;21.70;99.90;;;;;;5011230;28;20032;-80
2023/09/09 01:09:18;;;;;;;0.10;0.10;;;21.40;99.90;;;;;;5009409;28;20381;-79
2023/09/09 01:11:44;;;;;;;0.35;0.17;;;21.50;99.90;;;;;;4993650;28;20042;-80
2023/09/09 01:14:12;;;;;;;4.00;1.35;;;21.60;99.90;;;;;;5005653;28;20095;-80
2023/09/09 01:16:40;;;;;;;0.08;0.08;;;21.20;99.90;;;;;;5010797;28;20090;-80
2023/09/09 01:19:08;;;;;;;0.20;0.20;;;21.20;99.90;;;;;;5010706;28;20037;-80
2023/09/09 01:21:36;;;;;;;0.52;0.52;;;21.10;99.90;;;;;;5011571;28;20042;-79
2023/09/09 01:24:02;;;;;;;0.90;0.70;;;21.20;99.90;;;;;;5011916;28;20494;-79
2023/09/09 01:26:28;;;;;;;0.55;0.55;;;21.20;99.90;;;;;;5003960;28;20079;-79
2023/09/09 01:28:54;;;;;;;6.00;1.67;;;21.00;99.90;;;;;;4987541;28;20393;-79
2023/09/09 01:31:20;;;;;;;0.65;0.65;;;21.30;99.90;;;;;;5010557;28;20041;-79
2023/09/09 01:33:45;;;;;;;1.05;0.98;;;21.00;99.90;;;;;;5010764;28;20171;-79
2023/09/09 01:36:11;;;;;;;0.00;0.00;;;20.90;99.90;;;;;;5010579;28;20014;-79
2023/09/09 01:38:38;;;;;;;2.47;2.28;;;20.90;99.90;;;;;;5011765;28;20041;-80
2023/09/09 01:41:04;;;;;;;0.05;0.05;;;20.80;99.90;;;;;;5010526;28;20030;-79
2023/09/09 01:43:31;;;;;;;0.00;0.00;;;21.00;99.90;;;;;;5003590;28;20030;-79
2023/09/09 01:45:57;;;;;;;0.65;0.65;;;21.30;99.90;;;;;;5004598;28;20087;-79
2023/09/09 01:48:23;;;;;;;0.20;0.20;;;21.40;99.90;;;;;;5011616;28;20087;-79
2023/09/09 01:50:49;;;;;;;0.55;0.55;;;21.20;99.90;;;;;;5010437;28;20042;-80
2023/09/09 01:53:14;;;;;;;0.20;0.20;;;21.30;99.90;;;;;;5011647;28;20018;-79
2023/09/09 01:55:41;;;;;;;1.35;1.27;;;21.20;99.90;;;;;;5010405;28;20030;-79
2023/09/09 01:58:07;;;;;;;0.10;0.10;;;21.00;99.90;;;;;;4993930;28;20026;-80
2023/09/09 02:00:33;;;;;;;0.22;0.22;;;21.00;99.90;;;;;;5009889;28;20555;-80
2023/09/09 02:02:59;;;;;;;0.00;0.00;;;20.80;99.90;;;;;;5010399;28;20030;-79
2023/09/09 02:05:24;;;;;;;0.10;0.10;;;20.90;99.90;;;;;;5011332;28;20022;-79
2023/09/09 02:07:50;;;;;;;0.35;0.35;;;21.10;99.90;;;;;;5010336;28;20041;-79
2023/09/09 02:10:16;;;;;;;0.00;0.00;;;21.10;99.90;;;;;;5011242;28;20474;-79
2023/09/09 02:12:42;;;;;;;1.80;0.90;;;21.00;99.90;;;;;;5010336;28;20022;-80
2023/09/09 02:15:11;;;;;;;0.08;0.08;;;21.00;99.90;;;;;;5009622;28;20037;-80
2023/09/09 02:17:36;;;;;;;0.88;0.88;;;20.90;99.90;;;;;;5011182;28;20022;-80
2023/09/09 02:20:05;;;;;;;0.90;0.90;;;20.70;99.90;;;;;;5009878;28;20040;-80
2023/09/09 02:22:31;;;;;;;0.00;0.00;;;20.60;99.90;;;;;;5011054;28;20025;-80
2023/09/09 02:24:57;;;;;;;0.00;0.00;;;20.70;99.90;;;;;;4990277;28;20398;-80
2023/09/09 02:27:24;;;;;;;0.50;0.50;;;20.80;99.90;;;;;;5002220;28;20018;-80
2023/09/09 02:29:50;;;;;;;0.20;0.20;;;20.80;99.90;;;;;;4991391;28;20491;-79
2023/09/09 02:32:17;;;;;;;0.00;0.00;;;21.00;99.90;;;;;;4990516;28;20531;-80
2023/09/09 02:34:43;;;;;;;0.93;0.93;;;21.00;99.90;;;;;;5010676;28;20459;-80
2023/09/09 02:37:19;;;;;;;0.10;0.10;;;20.70;99.90;;;;;;5009560;28;20060;-79
2023/09/09 02:39:46;;;;;;;0.00;0.00;;;20.50;99.90;;;;;;5009588;28;20018;-80
2023/09/09 02:42:14;;;;;;;0.30;0.30;;;20.60;99.90;;;;;;4998716;28;20107;-79
2023/09/09 02:44:41;;;;;;;0.05;0.05;;;20.50;99.90;;;;;;5009900;28;20105;-79
2023/09/09 02:47:08;;;;;;;0.90;0.88;;;20.30;99.90;;;;;;5000269;28;20050;-79
2023/09/09 02:49:36;;;;;;;0.30;0.30;;;20.50;99.90;;;;;;5023447;28;20025;-80
2023/09/09 02:52:02;;;;;;;2.30;1.15;;;20.40;99.90;;;;;;5010590;28;20018;-80
2023/09/09 02:54:28;;;;;;;0.28;0.28;;;20.40;99.90;;;;;;5010650;28;20034;-80
2023/09/09 02:56:54;;;;;;;0.00;0.00;;;20.40;99.90;;;;;;4991588;28;20045;-80
2023/09/09 02:59:20;;;;;;;4.03;1.15;;;20.50;99.90;;;;;;5020065;28;20060;-79
2023/09/09 03:01:45;;;;;;;2.20;2.08;;;20.50;99.90;;;;;;5010393;28;20029;-80
2023/09/09 03:04:12;;;;;;;0.15;0.15;;;20.10;99.90;;;;;;4983343;28;20023;-80
2023/09/09 03:06:38;;;;;;;0.40;0.40;;;20.10;99.90;;;;;;5008181;28;20051;-79
2023/09/09 03:09:05;;;;;;;2.72;1.55;;;20.10;99.90;;;;;;5010365;28;20029;-80
2023/09/09 03:11:32;;;;;;;0.00;0.00;;;20.30;99.90;;;;;;5008576;28;20038;-80
2023/09/09 03:13:59;;;;;;;0.20;0.20;;;20.30;99.90;;;;;;4986616;28;20019;-80
2023/09/09 03:16:25;;;;;;;0.20;0.20;;;20.20;99.90;;;;;;5020372;28;20114;-80
2023/09/09 03:18:51;;;;;;;0.30;0.30;;;20.40;99.90;;;;;;5007280;28;20160;-80
2023/09/09 03:21:17;;;;;;;1.48;0.90;;;20.60;99.90;;;;;;5010109;28;20438;-80
2023/09/09 03:23:43;;;;;;;4.75;4.18;;;20.50;99.90;;;;;;4992624;28;20455;-79
2023/09/09 03:26:09;;;;;;;6.32;2.30;;;20.30;99.90;;;;;;5010310;28;20029;-80
2023/09/09 03:28:36;;;;;;;0.10;0.10;;;20.20;99.90;;;;;;5009152;28;20053;-80
2023/09/09 03:31:02;;;;;;;0.10;0.10;;;20.10;99.90;;;;;;5009008;28;20503;-81
2023/09/09 03:33:30;;;;;;;0.00;0.00;;;20.10;99.90;;;;;;5025385;28;20036;-80
2023/09/09 03:35:56;;;;;;;1.08;1.08;;;20.10;99.90;;;;;;5009902;28;20040;-80
2023/09/09 03:38:23;;;;;;;4.15;2.63;;;20.20;99.90;;;;;;5010012;28;20022;-80
2023/09/09 03:40:48;;;;;;;0.05;0.05;;;20.10;99.90;;;;;;4992049;28;20030;-80
2023/09/09 03:43:15;;;;;;;0.95;0.88;;;20.00;99.90;;;;;;5008871;28;20029;-80
2023/09/09 03:45:41;;;;;;;5.10;1.27;;;20.20;99.90;;;;;;5008901;28;20033;-80
2023/09/09 03:48:08;;;;;;;1.15;1.13;;;20.00;99.90;;;;;;5008601;28;20022;-80
2023/09/09 03:50:35;;;;;;;1.48;1.38;;;19.80;99.90;;;;;;5009942;28;20034;-80
2023/09/09 03:53:01;;;;;;;2.72;2.53;;;19.80;99.90;;;;;;5008349;28;20022;-81
2023/09/09 03:55:27;;;;;;;0.10;0.10;;;20.00;99.90;;;;;;5009643;28;20537;-81
2023/09/09 03:57:53;;;;;;;1.77;1.45;;;19.90;99.90;;;;;;5024968;28;20378;-80
2023/09/09 04:00:19;;;;;;;2.53;2.15;;;19.80;99.90;;;;;;5008603;28;20026;-80
2023/09/09 04:02:46;;;;;;;0.00;0.00;;;19.60;99.90;;;;;;5009879;28;20033;-80
2023/09/09 04:05:13;;;;;;;0.08;0.08;;;19.60;99.90;;;;;;5008335;28;20030;-81
2023/09/09 04:07:43;;;;;;;0.52;0.52;;;19.70;99.90;;;;;;5008276;28;20030;-80
2023/09/09 04:10:11;;;;;;;4.55;2.53;;;20.00;99.90;;;;;;5008159;28;20163;-81
2023/09/09 04:12:37;;;;;;;1.63;1.45;;;19.70;99.90;;;;;;5008202;28;20022;-81
2023/09/09 04:15:05;;;;;;;0.40;0.40;;;19.40;99.90;;;;;;5009650;28;20025;-81
2023/09/09 04:17:31;;;;;;;0.08;0.08;;;19.20;99.90;;;;;;5024632;28;20038;-81
2023/09/09 04:19:57;;;;;;;0.47;0.47;;;19.40;99.90;;;;;;5012420;28;20030;-81
2023/09/09 04:22:23;;;;;;;1.02;0.98;;;19.60;99.90;;;;;;5011616;28;20050;-81
2023/09/09 04:24:49;;;;;;;0.57;0.57;;;19.60;99.90;;;;;;5011584;28;20030;-81
2023/09/09 04:27:15;;;;;;;1.13;1.10;;;19.30;99.90;;;;;;4994256;28;20076;-80
2023/09/09 04:29:41;;;;;;;0.00;0.00;;;19.20;99.90;;;;;;5011645;28;20112;-80
2023/09/09 04:32:07;;;;;;;0.00;0.00;;;19.50;99.90;;;;;;5011786;28;20026;-80
2023/09/09 04:34:33;;;;;;;0.00;0.00;;;19.60;99.90;;;;;;4999101;28;20438;-80
2023/09/09 04:36:58;;;;;;;0.00;0.00;;;19.60;99.90;;;;;;5011619;28;20033;-80
2023/09/09 04:39:24;;;;;;;0.00;0.00;;;19.70;99.90;;;;;;5011469;28;20113;-78
2023/09/09 04:41:50;;;;;;;0.00;0.00;;;19.80;99.90;;;;;;5028050;28;20064;-78
2023/09/09 04:44:16;;;;;;;0.20;0.20;;;19.80;99.90;;;;;;5011139;28;20033;-78
2023/09/09 04:46:43;;;;;;;6.13;1.48;;;19.70;99.90;;;;;;5028031;28;20485;-78
2023/09/09 04:49:09;;;;;;;0.20;0.20;;;19.30;99.90;;;;;;5011190;28;20038;-78
2023/09/09 04:51:35;;;;;;;0.00;0.00;;;19.40;99.90;;;;;;5012747;28;20485;-78
2023/09/09 04:54:03;;;;;;;0.00;0.00;;;19.60;99.90;;;;;;5010990;28;20058;-78
2023/09/09 04:56:29;;;;;;;0.10;0.10;;;19.90;99.90;;;;;;5011174;28;20021;-78
2023/09/09 04:58:55;;;;;;;0.00;0.00;;;19.90;99.90;;;;;;5011235;28;20502;-78
2023/09/09 05:01:22;;;;;;;0.00;0.00;;;20.00;99.90;;;;;;5010869;28;20040;-79
2023/09/09 05:03:47;;;;;;;0.10;0.10;;;20.00;99.90;;;;;;5012468;28;20026;-78
2023/09/09 05:06:14;;;;;;;0.00;0.00;;;19.70;99.90;;;;;;4991995;28;20121;-78
2023/09/09 05:08:39;;;;;;;0.00;0.00;;;19.50;99.90;;;;;;5010316;28;20429;-78
2023/09/09 05:11:05;;;;;;;0.00;0.00;;;19.60;99.90;;;;;;5011060;28;20049;-78
2023/09/09 05:13:33;;;;;;;0.10;0.10;;;19.70;99.90;;;;;;5011784;28;20030;-78
2023/09/09 05:15:59;;;;;;;5.68;0.85;;;20.00;99.90;;;;;;4994840;28;20041;-78
2023/09/09 05:18:25;;;;;;;0.00;0.00;;;20.00;99.90;;;;;;5010945;28;20022;-78
2023/09/09 05:20:51;;;;;;;0.03;0.03;;;19.90;99.90;;;;;;5010633;28;20028;-79
2023/09/09 05:23:18;;;;;;;1.30;1.20;;;19.90;99.90;;;;;;5027290;28;20075;-79
2023/09/09 05:25:44;;;;;;;1.45;0.95;;;19.90;99.90;;;;;;5010652;28;20022;-81
2023/09/09 05:28:10;;;;;;;0.17;0.17;;;19.80;99.90;;;;;;5010934;28;20496;-80
2023/09/09 05:30:40;;;;;;;0.22;0.22;;;19.70;99.90;;;;;;5026756;28;20048;-79
2023/09/09 05:33:06;;;;;;;0.00;0.00;;;19.60;99.90;;;;;;5027219;28;20083;-79
2023/09/09 05:35:32;;;;;;;0.40;0.40;;;19.60;99.90;;;;;;5010809;28;20529;-80
2023/09/09 05:37:58;;;;;;;0.35;0.35;;;19.70;99.90;;;;;;4990951;28;20019;-74
2023/09/09 05:40:24;;;;;;;0.00;0.00;;;19.80;99.90;;;;;;5018301;28;20363;-73
2023/09/09 05:42:50;;;;;;;0.10;0.10;;;19.60;99.90;;;;;;5050553;28;20044;-74
2023/09/09 05:45:16;;;;;;;3.65;3.33;;;19.60;99.90;;;;;;5031644;28;20073;-74
2023/09/09 05:47:44;;;;;;;3.92;1.85;;;19.50;99.90;;;;;;5020562;28;20068;-73
2023/09/09 05:50:12;;;;;;;0.17;0.17;;;19.30;99.90;;;;;;5044136;28;20762;-75
2023/09/09 05:52:39;;;;;;;0.40;0.40;;;19.30;99.90;;;;;;5053859;28;20624;-75
2023/09/09 05:55:05;;;;;;;0.90;0.90;;;19.40;99.90;;;;;;5036087;28;20018;-74
2023/09/09 05:57:34;;;;;;;1.30;1.20;;;19.60;99.90;;;;;;5031934;28;20044;-72
2023/09/09 06:00:00;;;;;;;0.00;0.00;;;19.60;99.90;;;;;;5028326;28;20157;-75
2023/09/09 06:02:27;;;;;;;0.00;0.00;;;19.70;99.90;;;;;;5088877;28;20921;-75
2023/09/09 06:04:53;;;;;;;0.00;0.00;;;19.80;99.90;;;;;;5055904;28;20486;-75
2023/09/09 06:07:20;;;;;;;0.98;0.75;;;19.90;99.90;;;;;;5026865;28;20030;-76
2023/09/09 06:09:45;;;;;;;0.00;0.00;;;20.10;99.90;;;;;;5025954;28;20567;-75
2023/09/09 06:12:11;;;;;;;1.55;0.45;;;20.30;99.90;;;;;;5052870;28;20119;-75
2023/09/09 06:14:37;;;;;;;2.83;2.63;;;20.10;99.90;;;;;;5067835;28;20490;-75
2023/09/09 06:17:03;;;;;;;0.20;0.20;;;19.90;99.90;;;;;;5042213;28;20022;-75
2023/09/09 06:19:29;;;;;;;5.15;1.63;;;20.00;99.90;;;;;;5048883;28;20026;-75
2023/09/09 06:21:55;;;;;;;4.03;1.23;;;20.20;99.90;;;;;;5049573;28;20523;-75
2023/09/09 06:24:20;;;;;;;6.00;1.95;;;20.20;99.90;;;;;;5019794;28;20065;-74
2023/09/09 06:26:47;;;;;;;3.17;2.10;;;20.40;99.90;;;;;;5076644;27;20055;-74
2023/09/09 06:29:13;;;;;;;0.30;0.30;;;20.40;99.90;;;;;;5066425;28;20030;-76
2023/09/09 06:31:39;;;;;;;0.00;0.00;;;20.40;99.90;;;;;;5002040;28;20103;-75
2023/09/09 06:34:05;;;;;;;0.10;0.10;;;20.60;99.90;;;;;;5037944;28;20020;-75
2023/09/09 06:36:30;;;;;;;1.30;1.20;;;20.70;99.90;;;;;;5048119;28;20024;-74
2023/09/09 06:38:57;;;;;;;0.28;0.28;;;20.70;99.90;;;;;;5078450;28;20127;-76
2023/09/09 06:41:23;;;;;;;2.15;1.95;;;20.90;99.90;;;;;;5035784;28;20033;-75
2023/09/09 06:43:49;;;;;;;0.82;0.82;;;21.10;99.90;;;;;;5051571;28;20026;-75
2023/09/09 06:46:15;;;;;;;0.00;0.00;;;21.10;99.90;;;;;;5023830;28;20022;-76
2023/09/09 06:48:42;;;;;;;0.35;0.35;;;21.30;99.90;;;;;;5057144;28;20106;-76
2023/09/09 06:51:08;;;;;;;3.92;0.98;;;21.40;99.90;;;;;;5080196;28;20502;-75
2023/09/09 06:53:34;;;;;;;0.10;0.10;;;21.40;99.90;;;;;;5048685;28;20018;-75
2023/09/09 06:56:00;;;;;;;0.10;0.10;;;21.70;99.90;;;;;;5051498;28;20027;-75
2023/09/09 06:58:26;;;;;;;0.28;0.28;;;22.00;99.90;;;;;;5022022;28;20078;-75
2023/09/09 07:00:52;;;;;;;0.60;0.60;;;22.10;99.90;;;;;;5064102;28;20032;-75
2023/09/09 07:03:19;;;;;;;0.10;0.10;;;22.30;99.90;;;;;;5064395;28;20022;-74
2023/09/09 07:05:45;;;;;;;0.30;0.30;;;22.30;99.90;;;;;;5053105;28;20026;-75
2023/09/09 07:08:11;;;;;;;2.53;2.40;;;22.20;99.90;;;;;;5035325;28;20110;-75
2023/09/09 07:10:37;;;;;;;1.42;1.33;;;22.10;99.90;;;;;;5036454;28;20509;-75
2023/09/09 07:13:04;;;;;;;1.13;1.13;;;22.40;99.90;;;;;;5066915;28;20058;-75
2023/09/09 07:15:30;;;;;;;0.20;0.20;;;22.50;99.90;;;;;;5054536;28;20022;-75
2023/09/09 07:17:56;;;;;;;1.08;1.05;;;22.50;99.90;;;;;;5055916;28;20047;-75
2023/09/09 07:20:22;;;;;;;2.40;1.08;;;22.70;99.90;;;;;;5060059;28;20019;-74
2023/09/09 07:22:48;;;;;;;1.15;1.08;;;22.80;99.90;;;;;;5009651;28;20116;-76
2023/09/09 07:25:14;;;;;;;1.13;1.05;;;23.00;99.90;;;;;;5010129;28;20082;-84
2023/09/09 07:27:40;;;;;;;0.95;0.95;;;23.10;99.90;;;;;;5009970;28;20029;-81
2023/09/09 07:30:06;;;;;;;2.95;2.75;;;23.20;99.90;;;;;;5009064;28;20061;-81
2023/09/09 07:32:32;;;;;;;1.75;1.67;;;23.20;99.90;;;;;;4991533;28;20033;-82
2023/09/09 07:35:02;;;;;;;2.30;1.65;;;23.20;99.90;;;;;;4992898;28;20439;-82
2023/09/09 07:37:28;;;;;;;1.10;1.08;;;23.20;99.90;;;;;;5004026;28;20529;-82
2023/09/09 07:39:56;;;;;;;9.63;4.18;;;23.20;99.90;;;;;;5008239;28;20109;-82
2023/09/09 07:42:21;;;;;;;0.17;0.17;;;23.20;99.90;;;;;;5010067;28;20446;-82
2023/09/09 07:44:47;;;;;;;0.00;0.00;;;23.20;99.90;;;;;;5010094;28;20076;-82
2023/09/09 07:47:13;;;;;;;1.27;1.23;;;23.30;99.90;;;;;;5010009;28;20527;-82
2023/09/09 07:49:39;;;;;;;8.77;5.05;;;23.50;99.90;;;;;;5008670;28;20096;-81
2023/09/09 07:52:05;;;;;;;2.88;2.63;;;23.60;99.90;;;;;;4992712;28;20494;-81
2023/09/09 07:54:31;;;;;;;7.95;2.05;;;23.70;99.90;;;;;;5013817;28;20040;-82
2023/09/09 07:57:01;;;;;;;36.88;4.47;;;23.80;99.90;;;;;;5013485;28;20108;-82
2023/09/09 07:59:30;;;;;;;0.40;0.40;;;23.90;99.90;;;;;;5015677;28;20030;-82
2023/09/09 08:01:56;;;;;;;1.38;0.80;;;24.10;99.90;;;;;;5016489;28;20367;-82
2023/09/09 08:04:22;;;;;;;3.13;1.95;;;24.30;99.90;;;;;;5016800;28;20037;-83
2023/09/09 08:06:52;;;;;;;3.67;2.70;;;24.20;99.90;;;;;;5017290;28;20064;-82
2023/09/09 08:09:20;;;;;;;1.02;0.70;;;24.20;99.90;;;;;;5014670;28;20034;-82
2023/09/09 08:11:46;;;;;;;0.85;0.85;;;24.40;99.90;;;;;;5013850;28;20477;-83
2023/09/09 08:14:13;;;;;;;4.70;3.70;;;24.50;99.90;;;;;;5013277;28;20094;-83
2023/09/09 08:16:40;;;;;;;5.93;3.33;;;24.60;99.90;;;;;;5013381;28;20478;-80
2023/09/09 08:19:06;;;;;;;8.63;4.85;;;24.70;99.90;;;;;;5013189;28;20470;-82
2023/09/09 08:21:32;;;;;;;11.88;9.70;;;24.90;99.90;;;;;;5013131;28;20053;-81
2023/09/09 08:24:01;;;;;;;3.50;2.50;;;24.90;99.90;;;;;;5012919;28;20026;-82
2023/09/09 08:26:28;;;;;;;0.63;0.63;;;24.90;99.90;;;;;;5013320;28;20041;-82
2023/09/09 08:28:54;;;;;;;0.43;0.43;;;25.10;99.90;;;;;;5012621;28;20026;-82
2023/09/09 08:31:20;;;;;;;4.35;3.65;;;25.20;99.90;;;;;;5012588;28;20113;-82
2023/09/09 08:33:46;;;;;;;14.65;4.93;;;25.30;99.90;;;;;;5013430;28;20032;-82
2023/09/09 08:36:15;;;;;;;1.20;1.20;;;25.40;99.90;;;;;;5013633;28;20030;-83
2023/09/09 08:38:41;;;;;;;2.10;0.98;;;25.40;99.90;;;;;;5012785;28;20030;-80
2023/09/09 08:41:20;;;;;;;0.65;0.32;;;25.60;99.90;;;;;;5012631;28;20026;-80
2023/09/09 08:44:00;;;;;;;0.47;0.47;;;25.80;99.90;;;;;;5013188;28;20050;-80
2023/09/09 08:46:26;;;;;;;4.07;3.03;;;26.10;99.90;;;;;;5012327;28;20109;-80
2023/09/09 08:48:52;;;;;;;0.73;0.70;;;26.10;99.90;;;;;;5012731;28;20057;-80
2023/09/09 08:51:28;;;;;;;2.35;1.27;;;26.10;99.90;;;;;;5012567;28;20026;-80
2023/09/09 08:53:56;;;;;;;3.85;3.33;;;26.30;99.90;;;;;;5012529;28;20026;-80
2023/09/09 08:56:23;;;;;;;0.00;0.00;;;26.40;99.90;;;;;;5012632;28;20049;-80
2023/09/09 08:58:49;;;;;;;0.20;0.20;;;26.70;99.90;;;;;;5012296;28;20054;-80
2023/09/09 09:01:16;;;;;;;0.03;0.03;;;26.80;99.90;;;;;;5011735;28;20042;-80
2023/09/09 09:03:44;;;;;;;0.73;0.73;;;27.00;99.90;;;;;;5012343;28;20058;-80
2023/09/09 09:06:10;;;;;;;4.00;0.45;;;27.30;99.90;;;;;;5011703;28;20079;-80
2023/09/09 09:08:36;;;;;;;0.10;0.10;;;27.20;99.90;;;;;;5012246;28;20105;-80
2023/09/09 09:11:03;;;;;;;0.00;0.00;;;27.60;99.90;;;;;;5012249;28;20506;-80
2023/09/09 09:13:35;;;;;;;0.00;0.00;;;27.90;99.90;;;;;;5012208;28;20029;-80
2023/09/09 09:16:01;;;;;;;0.35;0.35;;;28.20;99.90;;;;;;5011957;28;20042;-80
2023/09/09 09:18:28;;;;;;;0.00;0.00;;;28.20;99.90;;;;;;5012370;28;20026;-80
2023/09/09 09:21:13;;;;;;;1.67;1.58;;;28.10;99.90;;;;;;5012090;28;20033;-80
2023/09/09 09:23:43;;;;;;;0.25;0.25;;;28.10;99.90;;;;;;5011808;28;20083;-80
2023/09/09 09:26:35;;;;;;;0.00;0.00;;;28.00;99.90;;;;;;5012277;28;20030;-80
2023/09/09 09:29:04;;;;;;;0.00;0.00;;;28.10;99.90;;;;;;5012066;28;20558;-80
2023/09/09 09:31:30;;;;;;;0.25;0.25;;;28.20;99.90;;;;;;5002834;28;20100;-80
2023/09/09 09:33:58;;;;;;;0.00;0.00;;;28.40;99.90;;;;;;4992967;28;20470;-80
2023/09/09 09:36:24;;;;;;;0.13;0.05;;;28.60;99.90;;;;;;5011204;28;20065;-81
2023/09/09 09:38:50;;;;;;;0.40;0.40;;;28.80;99.90;;;;;;5011782;28;20054;-80
2023/09/09 09:41:20;;;;;;;0.35;0.35;;;28.90;99.90;;;;;;5011728;28;20083;-82
2023/09/09 09:43:48;;;;;;;0.43;0.43;;;29.10;99.20;;;;;;5011603;28;20026;-79
2023/09/09 09:46:19;;;;;;;0.65;0.32;;;28.70;99.90;;;;;;5011384;28;20033;-81
2023/09/09 09:48:45;;;;;;;0.38;0.38;;;28.60;99.90;;;;;;5011899;28;20025;-82
2023/09/09 09:51:12;;;;;;;0.30;0.30;;;28.70;99.90;;;;;;5011144;28;20042;-80
2023/09/09 09:53:52;;;;;;;0.00;0.00;;;29.30;99.90;;;;;;5011874;28;20049;-80
2023/09/09 09:56:19;;;;;;;0.40;0.40;;;29.80;99.50;;;;;;5010243;28;20029;-80
2023/09/09 09:58:47;;;;;;;0.00;0.00;;;29.60;98.40;;;;;;5011415;28;20022;-80
2023/09/09 10:01:14;;;;;;;0.75;0.75;;;29.60;99.00;;;;;;5011241;28;20038;-80
2023/09/09 10:03:57;;;;;;;0.00;0.00;;;29.30;98.70;;;;;;4997914;28;20042;-79
2023/09/09 10:06:28;;;;;;;0.30;0.30;;;29.50;98.60;;;;;;5011114;28;20068;-82
2023/09/09 10:09:18;;;;;;;0.43;0.40;;;29.50;98.20;;;;;;5003233;28;20033;-80
2023/09/09 10:12:10;;;;;;;0.00;0.00;;;29.40;98.30;;;;;;5009159;28;20478;-79
2023/09/09 10:14:38;;;;;;;0.10;0.10;;;29.60;97.70;;;;;;5011516;28;20174;-79
2023/09/09 10:17:08;;;;;;;0.55;0.52;;;29.70;97.30;;;;;;5008490;28;20026;-80
2023/09/09 10:19:36;;;;;;;1.65;0.20;;;29.80;97.90;;;;;;5011388;28;20033;-80
2023/09/09 10:22:07;;;;;;;0.63;0.40;;;30.20;97.10;;;;;;5016945;28;20030;-80
2023/09/09 10:24:38;;;;;;;0.00;0.00;;;30.30;96.60;;;;;;5011253;28;20065;-80
2023/09/09 10:27:06;;;;;;;0.47;0.47;;;30.20;97.60;;;;;;5010817;28;20078;-79
2023/09/09 10:29:37;;;;;;;0.28;0.28;;;30.40;97.20;;;;;;5011248;28;20022;-80
2023/09/09 10:32:04;;;;;;;0.20;0.20;;;30.40;96.30;;;;;;5011061;28;20052;-80
2023/09/09 10:34:33;;;;;;;0.73;0.73;;;30.70;95.90;;;;;;5011049;28;20199;-79
2023/09/09 10:37:00;;;;;;;0.00;0.00;;;30.50;96.00;;;;;;5010944;28;20037;-80
2023/09/09 10:39:27;;;;;;;0.38;0.38;;;30.50;96.20;;;;;;5011004;28;20496;-79
2023/09/09 10:41:55;;;;;;;0.85;0.50;;;30.60;95.70;;;;;;5010994;28;20044;-80
2023/09/09 10:44:21;;;;;;;0.20;0.20;;;30.40;97.10;;;;;;5010830;28;20070;-80
2023/09/09 10:46:52;;;;;;;6.60;0.47;;;30.90;97.20;;;;;;5010982;28;20026;-79
2023/09/09 10:49:23;;;;;;;;;;;31.10;95.70;;;;;;5011175;28;20120;-80
2023/09/09 10:51:50;;;;;;;0.10;0.10;;;31.10;95.80;;;;;;5009558;28;19924;-79
2023/09/09 10:54:17;;;;;;;1.55;0.65;;;31.10;96.00;;;;;;5010757;28;20047;-79
2023/09/09 10:56:55;;;;;;;1.55;0.65;;;30.60;95.20;;;;;;5010449;28;20118;-79
2023/09/09 10:59:23;;;;;;;0.00;0.00;;;30.80;95.90;;;;;;5010733;28;20034;-79
2023/09/09 11:02:10;;;;;;;0.20;0.20;;;31.10;96.00;;;;;;5010517;28;20037;-79
2023/09/09 11:04:41;;;;;;;0.08;0.08;;;31.70;94.30;;;;;;5025768;28;20018;-80
2023/09/09 11:07:13;;;;;;;0.38;0.32;;;31.80;94.40;;;;;;5011004;28;20478;-81
2023/09/09 11:09:50;;;;;;;0.22;0.22;;;31.80;94.90;;;;;;4993366;28;20082;-80
2023/09/09 11:12:16;;;;;;;0.00;0.00;;;31.70;93.30;;;;;;5010235;28;20061;-80
2023/09/09 11:14:47;;;;;;;0.10;0.10;;;31.60;94.50;;;;;;5010626;28;20033;-80
2023/09/09 11:17:13;;;;;;;5.13;1.13;;;31.40;93.70;;;;;;5010098;28;20037;-79
2023/09/09 11:19:43;;;;;;;0.73;0.73;;;31.10;93.70;;;;;;5010451;28;20060;-79
2023/09/09 11:22:11;;;;;;;0.25;0.25;;;31.30;94.40;;;;;;5010117;28;20034;-79
2023/09/09 11:24:37;;;;;;;0.20;0.20;;;31.60;94.10;;;;;;5010390;28;20022;-80
2023/09/09 11:27:06;;;;;;;0.10;0.10;;;31.60;94.70;;;;;;5009619;28;20034;-79
2023/09/09 11:29:32;;;;;;;0.20;0.20;;;31.80;93.70;;;;;;5010194;28;20034;-79
2023/09/09 11:31:58;;;;;;;0.00;0.00;;;32.00;94.20;;;;;;5009938;28;20049;-79
2023/09/09 11:34:33;;;;;;;0.20;0.20;;;32.40;93.40;;;;;;5010241;28;20550;-79
2023/09/09 11:37:03;;;;;;;0.00;0.00;;;32.80;93.60;;;;;;5010008;28;20034;-79
2023/09/09 11:39:29;;;;;;;0.00;0.00;;;33.10;93.00;;;;;;5009544;28;20054;-79
2023/09/09 11:41:55;;;;;;;0.00;0.00;;;33.30;92.00;;;;;;5009930;28;20053;-79
2023/09/09 11:44:21;;;;;;;0.00;0.00;;;33.50;93.00;;;;;;5010085;28;20038;-80
2023/09/09 11:46:49;;;;;;;0.32;0.32;;;33.80;92.90;;;;;;5010189;28;20041;-79
2023/09/09 11:49:17;;;;;;;0.00;0.00;;;34.20;91.70;;;;;;5025188;28;20115;-80
2023/09/09 11:51:43;;;;;;;0.52;0.52;;;33.90;91.80;;;;;;5009937;28;20041;-79
2023/09/09 11:54:18;;;;;;;0.45;0.30;;;34.10;91.40;;;;;;5009683;28;20021;-79
2023/09/09 11:56:44;;;;;;;0.10;0.10;;;34.40;91.50;;;;;;5010111;28;20033;-79
2023/09/09 11:59:10;;;;;;;0.00;0.00;;;34.20;91.30;;;;;;5010033;28;20026;-79
2023/09/09 12:01:44;;;;;;;0.20;0.20;;;34.10;91.70;;;;;;5009728;28;20034;-79
2023/09/09 12:04:11;;;;;;;0.20;0.20;;;34.70;90.80;;;;;;5009821;28;20038;-79
2023/09/09 12:06:39;;;;;;;0.20;0.20;;;34.80;91.00;;;;;;5009649;28;20403;-79
2023/09/09 12:09:07;;;;;;;0.68;0.68;;;34.60;91.00;;;;;;5009291;28;20026;-78
2023/09/09 12:11:34;;;;;;;0.20;0.20;;;34.20;90.50;;;;;;5008452;28;20034;-79
2023/09/09 12:14:01;;;;;;;0.10;0.10;;;34.40;90.80;;;;;;5008494;28;20037;-79
2023/09/09 12:16:31;;;;;;;0.00;0.00;;;34.70;91.60;;;;;;5009782;28;20022;-79
2023/09/09 12:18:57;;;;;;;0.75;0.75;;;35.70;90.10;;;;;;5009369;28;20064;-79
2023/09/09 12:21:23;;;;;;;0.55;0.28;;;35.60;89.40;;;;;;5008589;28;20389;-79
2023/09/09 12:23:57;;;;;;;0.15;0.15;;;36.10;89.50;;;;;;5009172;28;20022;-79
2023/09/09 12:26:23;;;;;;;0.35;0.35;;;36.10;89.60;;;;;;5008945;28;20029;-81
2023/09/09 12:29:09;;;;;;;0.00;0.00;;;36.60;87.00;;;;;;5009511;28;20025;-80
2023/09/09 12:31:57;;;;;;;0.00;0.00;;;37.00;87.50;;;;;;5009435;28;20432;-81
2023/09/09 12:34:24;;;;;;;0.25;0.25;;;37.80;86.30;;;;;;5009346;28;20037;-81
2023/09/09 12:36:54;;;;;;;0.10;0.10;;;38.30;84.60;;;;;;5009069;28;20018;-81
2023/09/09 12:39:28;;;;;;;0.20;0.20;;;38.00;83.30;;;;;;5010025;28;20037;-81
2023/09/09 12:42:03;;;;;;;1.75;0.50;;;37.80;84.40;;;;;;5012740;28;20030;-81
2023/09/09 12:44:46;;;;;;;0.45;0.45;;;38.10;84.30;;;;;;5012586;28;20026;-81
2023/09/09 12:47:12;;;;;;;0.80;0.65;;;38.10;82.60;;;;;;5012940;28;20037;-81
2023/09/09 12:49:38;;;;;;;1.13;1.13;;;36.50;84.50;;;;;;5012639;28;20018;-81